This is the latest recevied weather packets stored in our database for station/object CA4LJZ-10. If no packets are shown the sender has not sent any weather packets the latest 10 day(s).
| Time | Temp. | Humidity | Pressure | Rain* | Wind** | Luminosity | Snow |
|---|---|---|---|---|---|---|---|
| 1788372627 | 35° C | 24% | 955.5 hPa | - | - | - | - |
| 1788370825 | 32.22° C | 27% | 955.7 hPa | - | - | - | - |
| 1788369924 | 30.56° C | 29% | 956 hPa | - | - | - | - |
| 1788369023 | 29.44° C | 30% | 956.1 hPa | - | - | - | - |
| 1788368122 | 27.22° C | 33% | 956.4 hPa | - | - | - | - |
| 1788367221 | 27.22° C | 33% | 956.4 hPa | - | - | - | - |
| 1788366320 | 26.67° C | 34% | 956.5 hPa | - | - | - | - |
| 1788365419 | 27.22° C | 34% | 956.3 hPa | - | - | - | - |
| 1788362717 | 25° C | 37% | 956.1 hPa | - | - | - | - |
| 1788361816 | 25° C | 37% | 955.9 hPa | - | - | - | - |
| 1788360915 | 25.56° C | 37% | 955.8 hPa | - | - | - | - |
| 1788359113 | 24.44° C | 40% | 955.8 hPa | - | - | - | - |
| 1788358212 | 24.44° C | 39% | 956.2 hPa | - | - | - | - |
| 1788357311 | 22.78° C | 42% | 956.3 hPa | - | - | - | - |
| 1788356410 | 22.22° C | 42% | 956.2 hPa | - | - | - | - |
| 1788355510 | 21.67° C | 43% | 956.1 hPa | - | - | - | - |
| 1788354609 | 21.11° C | 43% | 956.2 hPa | - | - | - | - |
| 1788353708 | 21.11° C | 41% | 955.9 hPa | - | - | - | - |
| 1788352807 | 21.11° C | 41% | 956.2 hPa | - | - | - | - |
| 1788351906 | 21.67° C | 43% | 955.9 hPa | - | - | - | - |
| 1788351027 | 20.56° C | 42% | 956 hPa | - | - | - | - |
| 1788350126 | 20.56° C | 43% | 956 hPa | - | - | - | - |
| 1788349225 | 20.56° C | 44% | 955.6 hPa | - | - | - | - |
| 1788348324 | 20.56° C | 44% | 955.5 hPa | - | - | - | - |
| 1788347423 | 20° C | 46% | 955.2 hPa | - | - | - | - |
* Rain since midnight (hover to see other rain measurements)
** Current wind speed in m/s (hover to see current wind gust speed)